Time;durP1;ratioP1;P1;durP2;ratioP2;P2;SDS_P1;SDS_P2;PMS_P1;PMS_P2;Temp;Humidity;BMP_temperature;BMP_pressure;BME280_temperature;BME280_humidity;BME280_pressure;Samples;Min_cycle;Max_cycle;Signal;HPM_P1;HPM_P2
2021/07/28 00:02:17;;;;;;;22.05;13.95;;;17.20;96.10;;;;;;5051385;28;20036;-73
2021/07/28 00:04:43;;;;;;;22.95;14.25;;;17.20;96.10;;;;;;5054367;28;20366;-74
2021/07/28 00:07:10;;;;;;;22.58;14.05;;;17.10;96.10;;;;;;5057014;28;20377;-73
2021/07/28 00:09:36;;;;;;;22.10;14.30;;;17.10;96.20;;;;;;5056428;28;20037;-74
2021/07/28 00:12:02;;;;;;;24.30;15.07;;;17.10;96.20;;;;;;5055549;28;20025;-74
2021/07/28 00:14:27;;;;;;;21.70;14.65;;;17.10;96.20;;;;;;5038858;28;20031;-74
2021/07/28 00:16:54;;;;;;;21.10;13.68;;;17.00;96.20;;;;;;5055086;28;20108;-74
2021/07/28 00:19:23;;;;;;;24.08;14.73;;;17.00;96.20;;;;;;5056605;28;20032;-74
2021/07/28 00:24:36;;;;;;;22.00;13.80;;;16.90;96.20;;;;;;5056220;28;20040;-74
2021/07/28 00:27:02;;;;;;;22.85;15.13;;;16.90;96.20;;;;;;5038566;28;20063;-73
2021/07/28 00:29:29;;;;;;;22.80;14.55;;;16.90;96.30;;;;;;5054968;28;20037;-74
2021/07/28 00:31:55;;;;;;;25.00;14.45;;;16.90;96.30;;;;;;5056229;28;20427;-74
2021/07/28 00:34:20;;;;;;;22.58;14.32;;;16.90;96.30;;;;;;5054791;28;20037;-74
2021/07/28 00:36:46;;;;;;;24.23;15.25;;;16.90;96.30;;;;;;5056206;28;20037;-74
2021/07/28 00:39:11;;;;;;;22.90;15.13;;;16.80;96.30;;;;;;5055924;28;20037;-74
2021/07/28 00:41:42;;;;;;;18.80;12.88;;;16.80;96.40;;;;;;5054750;28;20037;-74
2021/07/28 00:44:07;;;;;;;22.05;14.80;;;16.80;96.40;;;;;;5055778;28;20033;-74
2021/07/28 00:46:33;;;;;;;23.58;14.80;;;16.80;96.40;;;;;;5055452;28;20484;-74
2021/07/28 00:48:59;;;;;;;22.35;14.52;;;16.80;96.40;;;;;;5055582;28;20040;-74
2021/07/28 00:51:25;;;;;;;21.17;13.60;;;16.80;96.50;;;;;;5038185;28;20385;-74
2021/07/28 00:53:51;;;;;;;24.00;15.05;;;16.80;96.50;;;;;;5055817;28;20056;-74
2021/07/28 00:56:18;;;;;;;24.58;15.15;;;16.80;96.50;;;;;;5055645;28;20087;-74
2021/07/28 00:58:44;;;;;;;29.08;16.02;;;16.80;96.50;;;;;;5055684;28;20083;-74
2021/07/28 01:01:10;;;;;;;24.60;15.45;;;16.70;96.50;;;;;;5054610;28;20033;-74
2021/07/28 01:03:36;;;;;;;25.17;15.63;;;16.70;96.50;;;;;;5055638;28;20032;-74
2021/07/28 01:06:02;;;;;;;25.92;15.07;;;16.70;96.60;;;;;;5054494;28;20059;-74
2021/07/28 01:08:28;;;;;;;26.42;16.52;;;16.70;96.60;;;;;;5055420;28;20511;-73
2021/07/28 01:10:59;;;;;;;23.10;15.50;;;16.70;96.60;;;;;;5055279;28;20017;-74
2021/07/28 01:13:33;;;;;;;29.70;15.70;;;16.70;96.80;;;;;;5054058;28;20393;-74
2021/07/28 01:16:12;;;;;;;26.75;15.73;;;16.70;96.60;;;;;;5037604;28;20029;-74
2021/07/28 01:18:39;;;;;;;21.92;14.18;;;16.70;96.60;;;;;;5055197;28;20098;-74
2021/07/28 01:21:07;;;;;;;23.42;14.85;;;16.60;96.60;;;;;;5037772;28;20021;-74
2021/07/28 01:23:33;;;;;;;25.67;15.05;;;16.60;96.60;;;;;;5055406;28;20047;-74
2021/07/28 01:26:04;;;;;;;22.88;14.07;;;16.60;96.70;;;;;;5054401;28;20057;-74
2021/07/28 01:28:31;;;;;;;24.80;14.45;;;16.60;96.70;;;;;;5037712;28;20025;-74
2021/07/28 01:31:10;;;;;;;22.83;14.90;;;16.60;96.70;;;;;;5055058;28;20104;-74
2021/07/28 01:33:40;;;;;;;28.85;15.23;;;16.60;96.70;;;;;;5053661;28;20021;-74
2021/07/28 01:36:20;;;;;;;23.83;15.45;;;16.50;96.70;;;;;;5055147;28;20033;-74
2021/07/28 01:38:46;;;;;;;33.42;16.35;;;16.50;96.70;;;;;;5054717;28;20024;-74
2021/07/28 01:41:12;;;;;;;24.58;14.18;;;16.50;96.70;;;;;;5055124;28;20040;-74
2021/07/28 01:43:39;;;;;;;26.98;15.57;;;16.50;96.70;;;;;;5055213;28;20017;-74
2021/07/28 01:46:06;;;;;;;22.55;14.68;;;16.50;96.70;;;;;;5054723;28;20025;-74
2021/07/28 01:48:32;;;;;;;27.02;15.32;;;16.50;96.80;;;;;;5037054;28;20455;-74
2021/07/28 01:50:58;;;;;;;22.98;15.30;;;16.50;96.80;;;;;;5053357;28;20112;-74
2021/07/28 01:53:26;;;;;;;23.80;14.98;;;16.50;96.80;;;;;;5053348;28;20094;-74
2021/07/28 01:55:55;;;;;;;31.35;16.75;;;16.40;96.80;;;;;;5054534;28;20029;-74
2021/07/28 01:58:21;;;;;;;23.27;15.73;;;16.50;96.80;;;;;;5053105;28;20115;-74
2021/07/28 02:00:48;;;;;;;23.30;15.23;;;16.40;96.80;;;;;;5053206;28;20028;-74
2021/07/28 02:03:13;;;;;;;23.42;15.77;;;16.40;96.80;;;;;;5054232;28;20032;-74
2021/07/28 02:05:41;;;;;;;24.02;15.23;;;16.40;96.80;;;;;;5053029;28;20030;-73
2021/07/28 02:08:09;;;;;;;24.50;14.95;;;16.40;96.80;;;;;;5054220;28;20172;-74
2021/07/28 02:10:38;;;;;;;24.13;15.75;;;16.40;96.90;;;;;;5053213;28;20017;-74
2021/07/28 02:13:04;;;;;;;26.80;16.17;;;16.40;96.90;;;;;;5054244;28;20377;-74
2021/07/28 02:15:32;;;;;;;22.33;15.65;;;16.30;96.90;;;;;;5053224;28;20032;-74
2021/07/28 02:17:58;;;;;;;26.60;14.27;;;16.30;96.90;;;;;;5054571;28;20108;-74
2021/07/28 02:20:25;;;;;;;21.08;13.90;;;16.40;97.00;;;;;;5054206;28;20028;-73
2021/07/28 02:22:52;;;;;;;25.80;15.27;;;16.30;96.90;;;;;;5052921;28;20035;-74
2021/07/28 02:25:17;;;;;;;22.40;15.10;;;16.30;96.90;;;;;;5054158;28;20104;-74
2021/07/28 02:27:44;;;;;;;24.40;15.60;;;16.30;96.90;;;;;;5052539;28;20525;-74
2021/07/28 02:30:14;;;;;;;23.95;15.45;;;16.30;97.00;;;;;;5053834;28;20025;-74
2021/07/28 02:32:40;;;;;;;25.55;15.18;;;16.30;97.00;;;;;;5052969;28;20017;-74
2021/07/28 02:35:07;;;;;;;26.85;14.45;;;16.30;97.30;;;;;;5035982;28;20021;-75
2021/07/28 02:37:33;;;;;;;26.10;14.77;;;16.30;97.00;;;;;;5052382;28;20108;-74
2021/07/28 02:39:59;;;;;;;24.33;14.80;;;16.20;97.00;;;;;;5052413;28;20028;-74
2021/07/28 02:42:25;;;;;;;23.40;14.85;;;16.20;97.00;;;;;;5052576;28;20032;-74
2021/07/28 02:44:51;;;;;;;25.98;15.48;;;16.20;97.00;;;;;;5052598;28;20033;-75
2021/07/28 02:47:16;;;;;;;23.02;14.80;;;16.20;97.10;;;;;;5052006;28;20037;-75
2021/07/28 02:49:42;;;;;;;26.92;15.63;;;16.20;97.10;;;;;;5053201;28;20025;-73
2021/07/28 02:52:08;;;;;;;23.17;14.80;;;16.20;97.40;;;;;;5053676;28;20481;-74
2021/07/28 02:54:33;;;;;;;18.63;12.48;;;16.20;97.10;;;;;;5052410;28;20032;-74
2021/07/28 02:57:00;;;;;;;22.48;14.05;;;16.20;97.20;;;;;;5053580;28;20024;-74
2021/07/28 02:59:26;;;;;;;25.27;14.05;;;16.20;97.20;;;;;;5053493;28;20037;-74
2021/07/28 03:01:54;;;;;;;21.27;14.27;;;16.20;97.20;;;;;;5035482;28;20484;-75
2021/07/28 03:04:20;;;;;;;22.90;14.35;;;16.30;97.30;;;;;;5053330;28;20388;-74
2021/07/28 03:06:47;;;;;;;22.95;14.48;;;16.30;97.40;;;;;;5053107;28;20059;-74
2021/07/28 03:09:13;;;;;;;25.05;14.00;;;16.30;97.40;;;;;;5035199;28;20435;-75
2021/07/28 03:11:39;;;;;;;22.27;14.23;;;16.30;97.40;;;;;;5053313;28;20052;-77
2021/07/28 03:14:04;;;;;;;23.33;14.27;;;16.30;97.40;;;;;;5053206;28;20029;-76
2021/07/28 03:16:31;;;;;;;19.42;13.07;;;16.30;97.40;;;;;;5053155;28;20033;-76
2021/07/28 03:18:57;;;;;;;25.05;14.68;;;16.40;97.50;;;;;;5053195;28;20116;-76
2021/07/28 03:21:23;;;;;;;23.08;14.52;;;16.40;97.50;;;;;;5052425;28;20061;-76
2021/07/28 03:23:48;;;;;;;27.05;15.68;;;16.40;97.40;;;;;;5053191;28;20040;-76
2021/07/28 03:26:14;;;;;;;24.63;14.25;;;16.40;97.40;;;;;;5052140;28;20033;-76
2021/07/28 03:28:39;;;;;;;24.58;14.07;;;16.40;97.40;;;;;;5051988;28;20473;-76
2021/07/28 03:31:05;;;;;;;22.98;14.80;;;16.50;97.40;;;;;;5053166;28;20061;-76
2021/07/28 03:33:31;;;;;;;26.02;14.60;;;16.50;97.40;;;;;;5053557;28;20025;-76
2021/07/28 03:35:57;;;;;;;22.50;13.57;;;16.50;97.40;;;;;;5052090;28;20541;-76
2021/07/28 03:38:23;;;;;;;21.75;13.38;;;16.50;97.40;;;;;;5051893;28;20037;-76
2021/07/28 03:40:49;;;;;;;22.13;14.25;;;16.50;97.40;;;;;;5055789;28;20057;-76
2021/07/28 03:43:15;;;;;;;21.83;14.75;;;16.50;97.40;;;;;;5057405;28;20126;-76
2021/07/28 03:45:42;;;;;;;21.70;14.15;;;16.50;97.40;;;;;;5056846;28;20602;-76
2021/07/28 03:48:08;;;;;;;21.77;13.85;;;16.50;97.40;;;;;;5056773;28;20025;-76
2021/07/28 03:50:34;;;;;;;19.75;12.10;;;16.50;97.40;;;;;;5039031;28;20032;-78
2021/07/28 03:53:03;;;;;;;19.67;12.88;;;16.50;97.30;;;;;;5055413;28;20029;-76
2021/07/28 03:55:29;;;;;;;18.52;12.05;;;16.50;97.30;;;;;;5055788;28;20478;-76
2021/07/28 03:57:55;;;;;;;21.25;12.60;;;16.50;97.30;;;;;;5055270;28;20114;-76
2021/07/28 04:00:21;;;;;;;18.92;13.13;;;16.50;97.30;;;;;;5053608;28;20024;-76
2021/07/28 04:02:47;;;;;;;17.77;11.88;;;16.60;97.60;;;;;;5035334;28;20026;-78
2021/07/28 04:05:14;;;;;;;20.38;12.23;;;16.60;97.30;;;;;;5035276;28;20026;-76
2021/07/28 04:07:40;;;;;;;20.42;12.45;;;16.60;97.60;;;;;;5035281;28;20022;-76
2021/07/28 04:10:06;;;;;;;19.98;12.35;;;16.60;97.30;;;;;;5036385;28;20033;-77
2021/07/28 04:12:31;;;;;;;24.02;12.07;;;16.60;97.40;;;;;;5035303;28;20422;-75
2021/07/28 04:14:57;;;;;;;18.17;11.90;;;16.60;97.30;;;;;;5035027;28;20053;-75
2021/07/28 04:17:23;;;;;;;18.35;12.38;;;16.60;97.30;;;;;;5034752;28;20017;-75
2021/07/28 04:19:49;;;;;;;19.05;12.85;;;16.70;97.30;;;;;;5035304;28;20462;-75
2021/07/28 04:22:19;;;;;;;19.77;13.10;;;16.70;97.30;;;;;;5035474;28;20458;-75
2021/07/28 04:24:45;;;;;;;16.92;10.07;;;16.70;97.30;;;;;;5035323;28;20025;-75
2021/07/28 04:27:11;;;;;;;17.60;11.95;;;16.70;97.30;;;;;;5035284;28;20025;-75
2021/07/28 04:29:37;;;;;;;18.95;11.18;;;16.70;97.30;;;;;;5035279;28;20461;-75
2021/07/28 04:32:03;;;;;;;16.10;11.32;;;16.70;97.30;;;;;;5034946;28;20026;-73
2021/07/28 04:34:28;;;;;;;19.60;12.18;;;16.80;97.30;;;;;;5036402;28;20025;-75
2021/07/28 04:36:54;;;;;;;18.42;11.90;;;16.80;97.20;;;;;;5036213;28;20079;-75
2021/07/28 04:39:20;;;;;;;16.20;11.10;;;16.80;97.20;;;;;;5034570;28;20104;-75
2021/07/28 04:41:45;;;;;;;21.52;11.43;;;16.80;97.20;;;;;;5035816;28;20029;-75
2021/07/28 04:44:11;;;;;;;22.63;11.48;;;16.90;97.20;;;;;;5018333;28;20022;-75
2021/07/28 04:46:36;;;;;;;16.17;11.48;;;16.80;97.00;;;;;;5034741;28;20469;-75
2021/07/28 04:49:02;;;;;;;17.65;11.88;;;16.80;97.00;;;;;;5018187;28;20117;-75
2021/07/28 04:51:28;;;;;;;18.88;12.07;;;16.90;97.00;;;;;;5033141;28;20018;-75
2021/07/28 04:53:53;;;;;;;20.08;12.23;;;16.90;96.90;;;;;;5034871;28;20184;-75
2021/07/28 04:56:19;;;;;;;16.52;11.90;;;16.90;96.90;;;;;;5036019;28;20116;-74
2021/07/28 04:58:45;;;;;;;14.18;10.55;;;16.90;96.90;;;;;;5035798;28;20033;-75
2021/07/28 05:01:11;;;;;;;22.58;11.48;;;16.90;96.80;;;;;;5033954;28;20075;-75
2021/07/28 05:03:36;;;;;;;16.98;11.82;;;16.90;96.80;;;;;;5054371;28;20057;-74
2021/07/28 05:06:02;;;;;;;19.80;11.80;;;16.90;96.70;;;;;;5037409;28;20033;-75
2021/07/28 05:08:28;;;;;;;17.75;11.30;;;16.90;96.80;;;;;;5055282;28;20045;-75
2021/07/28 05:10:53;;;;;;;15.77;10.43;;;16.90;96.70;;;;;;5054250;28;20432;-75
2021/07/28 05:13:19;;;;;;;19.13;13.07;;;16.90;96.70;;;;;;5037708;28;20377;-75
2021/07/28 05:15:45;;;;;;;16.98;11.93;;;17.00;96.70;;;;;;5055592;28;20021;-75
2021/07/28 05:18:10;;;;;;;16.50;11.30;;;17.00;96.70;;;;;;5055362;28;20029;-78
2021/07/28 05:20:36;;;;;;;16.42;11.48;;;17.00;96.70;;;;;;5055496;28;20473;-78
2021/07/28 05:23:03;;;;;;;17.50;10.98;;;17.00;96.60;;;;;;5054224;28;20448;-77
2021/07/28 05:25:28;;;;;;;18.90;12.88;;;17.10;96.60;;;;;;5054038;28;20376;-78
2021/07/28 05:27:55;;;;;;;18.95;12.15;;;17.10;96.60;;;;;;5037316;28;20029;-78
2021/07/28 05:30:20;;;;;;;17.20;11.38;;;17.10;96.60;;;;;;5055238;28;20104;-78
2021/07/28 05:32:46;;;;;;;18.75;12.00;;;17.10;96.60;;;;;;5053684;28;20021;-79
2021/07/28 05:35:12;;;;;;;17.30;11.38;;;17.10;96.50;;;;;;5053932;28;20021;-79
2021/07/28 05:37:37;;;;;;;18.30;11.45;;;17.20;96.60;;;;;;5055198;28;20078;-78
2021/07/28 05:40:04;;;;;;;20.20;11.75;;;17.20;96.50;;;;;;5053606;28;20108;-79
2021/07/28 05:42:29;;;;;;;18.25;12.35;;;17.20;96.50;;;;;;5036907;28;20478;-80
2021/07/28 05:44:55;;;;;;;15.60;11.35;;;17.30;96.50;;;;;;5037181;28;20140;-78
2021/07/28 05:47:21;;;;;;;17.77;11.73;;;17.30;96.50;;;;;;5053548;28;20029;-74
2021/07/28 05:49:46;;;;;;;16.17;11.02;;;17.40;96.50;;;;;;5053377;28;20115;-73
2021/07/28 05:52:12;;;;;;;17.83;11.52;;;17.30;96.50;;;;;;5053608;28;20021;-75
2021/07/28 05:54:37;;;;;;;16.50;11.68;;;17.40;96.50;;;;;;5053559;28;20379;-75
2021/07/28 05:57:03;;;;;;;16.77;11.32;;;17.40;96.50;;;;;;5036908;28;20025;-74
2021/07/28 05:59:29;;;;;;;16.88;12.05;;;17.50;96.50;;;;;;5053417;28;20128;-74
2021/07/28 06:01:54;;;;;;;17.45;12.38;;;17.50;96.50;;;;;;5036222;28;20032;-79
2021/07/28 06:04:20;;;;;;;15.57;11.63;;;17.60;96.50;;;;;;5054341;28;20033;-76
2021/07/28 06:06:46;;;;;;;21.67;13.18;;;17.60;96.40;;;;;;5053032;28;20037;-78
2021/07/28 06:09:11;;;;;;;19.73;12.65;;;17.70;96.50;;;;;;5036164;28;20458;-79
2021/07/28 06:11:37;;;;;;;18.02;13.15;;;17.70;96.40;;;;;;5052908;28;20484;-79
2021/07/28 06:14:02;;;;;;;19.92;13.48;;;17.80;96.20;;;;;;5036344;28;20056;-78
2021/07/28 06:16:28;;;;;;;17.10;12.32;;;17.80;96.20;;;;;;5036276;28;20029;-80
2021/07/28 06:18:54;;;;;;;16.65;13.48;;;17.80;96.10;;;;;;5054017;28;20043;-78
2021/07/28 06:21:20;;;;;;;17.02;12.77;;;17.90;96.10;;;;;;5036079;28;20550;-79
2021/07/28 06:23:45;;;;;;;18.27;12.25;;;18.00;96.10;;;;;;5035912;28;20041;-79
2021/07/28 06:26:11;;;;;;;16.30;12.65;;;18.00;96.10;;;;;;5052718;28;20067;-81
2021/07/28 06:28:37;;;;;;;18.90;13.25;;;18.10;96.00;;;;;;5052707;28;20053;-78
2021/07/28 06:31:02;;;;;;;17.08;12.45;;;18.10;95.90;;;;;;5052672;28;20504;-78
2021/07/28 06:33:28;;;;;;;21.77;14.05;;;18.10;95.90;;;;;;5052873;28;20029;-79
2021/07/28 06:35:54;;;;;;;17.02;13.25;;;18.20;95.70;;;;;;5052577;28;20033;-78
2021/07/28 06:38:20;;;;;;;18.85;13.57;;;18.20;95.70;;;;;;5053861;28;20350;-72
2021/07/28 06:40:46;;;;;;;19.67;12.95;;;18.20;95.70;;;;;;5052461;28;20032;-73
2021/07/28 06:43:13;;;;;;;20.20;13.68;;;18.30;95.60;;;;;;5052523;28;20075;-73
2021/07/28 06:45:39;;;;;;;17.52;13.27;;;18.30;95.40;;;;;;5053562;28;20465;-74
2021/07/28 06:48:06;;;;;;;20.05;14.25;;;18.40;95.40;;;;;;5052348;28;20107;-74
2021/07/28 06:50:32;;;;;;;16.02;13.30;;;18.40;95.40;;;;;;5053339;28;20032;-74
2021/07/28 06:52:57;;;;;;;16.30;13.07;;;18.40;95.30;;;;;;5052153;28;20108;-73
2021/07/28 06:55:23;;;;;;;18.27;13.10;;;18.40;95.20;;;;;;5052198;28;20029;-74
2021/07/28 06:57:49;;;;;;;16.63;13.65;;;18.40;95.20;;;;;;5052172;28;20031;-75
2021/07/28 07:00:15;;;;;;;20.02;14.38;;;18.50;95.10;;;;;;5052119;28;20025;-74
2021/07/28 07:02:40;;;;;;;19.52;13.95;;;18.50;95.00;;;;;;5052016;28;20094;-74
2021/07/28 07:05:08;;;;;;;19.33;14.15;;;18.50;94.90;;;;;;5052376;28;20029;-74
2021/07/28 07:07:34;;;;;;;18.15;13.70;;;18.60;95.00;;;;;;5053608;28;20033;-75
2021/07/28 07:10:00;;;;;;;20.08;13.90;;;18.60;94.90;;;;;;5053389;28;20090;-74
2021/07/28 07:12:25;;;;;;;18.23;12.55;;;18.60;94.70;;;;;;5052193;28;20021;-75
2021/07/28 07:14:51;;;;;;;17.23;11.32;;;18.80;94.80;;;;;;5051410;28;20029;-73
2021/07/28 07:17:17;;;;;;;14.70;10.80;;;18.80;94.50;;;;;;5035768;28;20123;-74
2021/07/28 07:19:43;;;;;;;14.50;10.30;;;18.90;94.10;;;;;;5052448;28;20032;-74
2021/07/28 07:22:09;;;;;;;14.05;11.25;;;18.90;93.70;;;;;;5052048;28;20029;-75
2021/07/28 07:24:35;;;;;;;13.52;9.70;;;19.00;93.50;;;;;;5053290;28;20049;-75
2021/07/28 07:27:01;;;;;;;14.10;10.07;;;19.00;93.30;;;;;;5053479;28;20381;-74
2021/07/28 07:29:27;;;;;;;12.18;8.73;;;19.10;92.90;;;;;;5052127;28;20017;-76
2021/07/28 07:31:53;;;;;;;13.88;9.35;;;19.10;92.70;;;;;;5053596;28;20052;-75
2021/07/28 07:34:20;;;;;;;11.98;8.38;;;19.10;92.50;;;;;;5053168;28;20029;-74
2021/07/28 07:36:45;;;;;;;13.32;8.73;;;19.10;92.40;;;;;;5051937;28;20033;-75
2021/07/28 07:39:11;;;;;;;13.98;9.00;;;19.10;92.50;;;;;;5052749;28;20477;-73
2021/07/28 07:41:37;;;;;;;12.77;7.15;;;19.20;92.40;;;;;;5052947;28;20083;-75
2021/07/28 07:44:03;;;;;;;12.45;8.27;;;19.20;92.40;;;;;;5053173;28;20463;-75
2021/07/28 07:46:29;;;;;;;12.48;8.35;;;19.20;92.10;;;;;;5052831;28;20409;-75
2021/07/28 07:48:55;;;;;;;11.88;7.30;;;19.20;91.60;;;;;;5052792;28;20029;-74
2021/07/28 07:51:22;;;;;;;10.63;6.88;;;19.20;91.40;;;;;;5052911;28;20155;-75
2021/07/28 07:53:47;;;;;;;10.68;7.18;;;19.30;91.40;;;;;;5052979;28;20040;-75
2021/07/28 07:56:13;;;;;;;12.50;6.78;;;19.30;91.60;;;;;;5052994;28;20481;-75
2021/07/28 07:58:39;;;;;;;10.18;6.47;;;19.30;91.10;;;;;;5035304;28;20025;-75
2021/07/28 08:01:06;;;;;;;9.10;5.80;;;19.40;90.80;;;;;;5051380;28;20063;-75
2021/07/28 08:03:32;;;;;;;11.15;5.80;;;19.50;90.40;;;;;;5051705;28;20361;-74
2021/07/28 08:05:58;;;;;;;10.23;5.72;;;19.60;90.20;;;;;;5052603;28;20029;-75
2021/07/28 08:08:23;;;;;;;8.05;5.40;;;19.60;89.70;;;;;;5051204;28;20056;-76
2021/07/28 08:10:49;;;;;;;9.75;5.38;;;19.70;89.30;;;;;;5051552;28;20033;-74
2021/07/28 08:13:15;;;;;;;9.13;5.10;;;19.70;89.10;;;;;;5051323;28;20033;-75
2021/07/28 08:15:40;;;;;;;7.00;4.53;;;19.80;88.60;;;;;;5051376;28;20022;-75
2021/07/28 08:18:06;;;;;;;9.70;5.00;;;19.90;88.80;;;;;;5051980;28;20139;-77
2021/07/28 08:20:32;;;;;;;8.60;4.68;;;19.90;87.60;;;;;;5035088;28;20025;-74
2021/07/28 08:22:58;;;;;;;8.88;4.90;;;19.90;87.60;;;;;;5051157;28;20104;-75
2021/07/28 08:25:24;;;;;;;7.50;4.07;;;19.90;87.70;;;;;;5035846;28;20057;-76
2021/07/28 08:27:49;;;;;;;10.80;5.13;;;19.90;87.50;;;;;;5054892;28;20554;-77
2021/07/28 08:30:15;;;;;;;9.93;4.18;;;20.00;87.30;;;;;;5054910;28;20028;-74
2021/07/28 08:32:42;;;;;;;8.98;4.90;;;19.90;87.00;;;;;;5038147;28;20082;-75
2021/07/28 08:35:08;;;;;;;11.80;4.70;;;20.00;87.70;;;;;;5037946;28;20078;-75
2021/07/28 08:37:34;;;;;;;9.70;4.82;;;20.00;87.50;;;;;;5054515;28;20040;-74
2021/07/28 08:39:59;;;;;;;9.00;4.53;;;20.00;85.40;;;;;;5054450;28;20037;-78
2021/07/28 08:42:27;;;;;;;11.15;5.35;;;20.00;85.40;;;;;;5038024;28;20021;-75
2021/07/28 08:44:53;;;;;;;6.95;4.43;;;19.90;85.40;;;;;;5054507;28;20507;-76
2021/07/28 08:47:19;;;;;;;8.65;5.22;;;19.90;85.80;;;;;;5055810;28;20029;-75
2021/07/28 08:49:45;;;;;;;9.35;5.13;;;19.90;85.80;;;;;;5054343;28;20017;-75
2021/07/28 08:52:11;;;;;;;9.05;4.93;;;20.00;86.20;;;;;;5054263;28;20096;-76
2021/07/28 08:54:37;;;;;;;8.25;4.68;;;20.00;86.40;;;;;;5054185;28;20074;-76
2021/07/28 08:57:03;;;;;;;4.95;3.50;;;20.20;86.80;;;;;;5021565;28;20435;-75
2021/07/28 08:59:31;;;;;;;9.30;4.22;;;20.40;86.10;;;;;;5054416;28;20033;-75
2021/07/28 09:01:57;;;;;;;6.65;3.50;;;20.50;85.50;;;;;;5037643;28;20427;-77
2021/07/28 09:04:24;;;;;;;9.93;3.60;;;20.50;84.20;;;;;;5037764;28;20033;-76
2021/07/28 09:06:50;;;;;;;8.85;3.45;;;20.60;82.90;;;;;;5054457;28;20033;-76
2021/07/28 09:09:16;;;;;;;6.40;3.17;;;20.60;81.90;;;;;;5055582;28;20404;-78
2021/07/28 09:11:59;;;;;;;9.20;3.05;;;20.60;81.70;;;;;;5054628;28;20029;-78
2021/07/28 09:14:30;;;;;;;5.90;2.50;;;20.60;80.10;;;;;;5054481;28;20060;-76
2021/07/28 09:17:17;;;;;;;8.45;2.80;;;20.60;79.20;;;;;;5054080;28;20283;-76
2021/07/28 09:19:46;;;;;;;5.82;2.47;;;20.60;79.50;;;;;;5054325;28;20115;-76
2021/07/28 09:22:12;;;;;;;6.40;2.97;;;20.60;79.90;;;;;;5055280;28;20053;-75
2021/07/28 09:24:39;;;;;;;5.95;3.38;;;20.70;79.80;;;;;;5054101;28;20029;-75
2021/07/28 09:27:05;;;;;;;6.47;2.97;;;20.80;79.60;;;;;;5053727;28;20025;-76
2021/07/28 09:29:32;;;;;;;8.48;3.20;;;20.90;79.60;;;;;;5053973;28;20025;-75
2021/07/28 09:32:07;;;;;;;5.47;2.50;;;21.00;79.40;;;;;;5037509;28;20048;-75
2021/07/28 09:34:39;;;;;;;4.55;2.40;;;21.10;78.10;;;;;;5053854;28;20123;-76
2021/07/28 09:37:15;;;;;;;7.55;2.97;;;21.10;78.10;;;;;;5054376;28;20063;-75
2021/07/28 09:39:45;;;;;;;5.85;2.65;;;21.10;77.90;;;;;;5054961;28;20076;-76
2021/07/28 09:42:27;;;;;;;4.55;1.95;;;21.10;78.10;;;;;;5055000;28;20028;-77
2021/07/28 09:44:55;;;;;;;6.35;2.17;;;21.20;78.10;;;;;;5053932;28;20040;-74
2021/07/28 09:47:25;;;;;;;6.22;2.05;;;21.30;77.60;;;;;;5036955;28;20028;-76
2021/07/28 09:49:57;;;;;;;6.15;2.17;;;21.30;76.50;;;;;;5054436;28;20021;-78
2021/07/28 09:52:29;;;;;;;7.45;2.00;;;21.40;76.30;;;;;;5053334;28;20063;-78
2021/07/28 09:54:58;;;;;;;3.22;1.55;;;21.50;74.60;;;;;;5054724;28;20071;-76
2021/07/28 09:57:25;;;;;;;7.30;2.03;;;21.60;75.50;;;;;;5054442;28;20496;-77
2021/07/28 09:59:55;;;;;;;4.97;1.52;;;21.60;74.80;;;;;;5054531;28;20025;-80
2021/07/28 10:02:22;;;;;;;4.35;2.00;;;21.60;75.00;;;;;;5054169;28;20477;-74
2021/07/28 10:04:49;;;;;;;6.30;2.28;;;21.70;74.50;;;;;;5053486;28;20507;-75
2021/07/28 10:07:17;;;;;;;5.53;1.92;;;21.70;74.40;;;;;;5036527;28;20082;-76
2021/07/28 10:09:47;;;;;;;5.32;2.10;;;21.90;74.40;;;;;;5036248;28;20385;-76
2021/07/28 10:12:14;;;;;;;3.50;1.48;;;22.00;73.70;;;;;;5054107;28;20035;-74
2021/07/28 10:14:42;;;;;;;4.03;1.40;;;22.20;73.20;;;;;;5053394;28;20036;-76
2021/07/28 10:17:10;;;;;;;7.97;2.15;;;22.30;73.10;;;;;;5053059;28;20024;-76
2021/07/28 10:19:36;;;;;;;4.40;1.73;;;22.40;72.00;;;;;;5052965;28;20469;-76
2021/07/28 10:22:03;;;;;;;8.50;2.00;;;22.40;71.20;;;;;;5020107;28;20035;-76
2021/07/28 10:24:29;;;;;;;5.72;1.88;;;22.40;70.80;;;;;;5053991;28;20032;-74
2021/07/28 10:26:57;;;;;;;5.03;1.50;;;22.30;71.40;;;;;;5053931;28;20033;-76
2021/07/28 10:29:23;;;;;;;7.90;1.92;;;22.30;71.40;;;;;;5053717;28;20025;-76
2021/07/28 10:31:51;;;;;;;3.08;1.30;;;22.30;70.80;;;;;;5052598;28;20025;-74
2021/07/28 10:34:31;;;;;;;3.83;1.35;;;22.40;71.30;;;;;;5053795;28;20017;-73
2021/07/28 10:37:04;;;;;;;3.50;1.25;;;22.50;70.80;;;;;;5052331;28;20040;-74
2021/07/28 10:39:40;;;;;;;7.25;1.40;;;22.70;71.10;;;;;;5053354;28;20031;-74
2021/07/28 10:42:06;;;;;;;4.25;1.20;;;23.10;71.00;;;;;;5054169;28;20033;-76
2021/07/28 10:45:05;;;;;;;4.13;1.20;;;23.50;70.20;;;;;;5053802;28;20075;-74
2021/07/28 10:47:45;;;;;;;3.28;1.20;;;23.60;67.80;;;;;;5052586;28;20017;-74
2021/07/28 10:50:25;;;;;;;5.95;1.48;;;23.40;66.60;;;;;;5035239;28;20029;-72
2021/07/28 10:52:55;;;;;;;7.20;1.63;;;23.10;66.90;;;;;;5053348;28;20021;-72
2021/07/28 10:55:23;;;;;;;4.50;1.65;;;22.90;67.20;;;;;;5053424;28;20028;-74
2021/07/28 10:57:52;;;;;;;4.00;1.50;;;23.00;68.50;;;;;;5053685;28;20107;-75
2021/07/28 11:00:47;;;;;;;4.70;1.42;;;23.50;69.10;;;;;;5053305;28;20485;-74
2021/07/28 11:03:17;;;;;;;3.25;1.10;;;24.00;67.00;;;;;;5052445;28;20032;-74
2021/07/28 11:05:52;;;;;;;2.72;1.00;;;24.30;65.20;;;;;;5052079;28;20115;-76
2021/07/28 11:08:21;;;;;;;6.03;1.10;;;24.30;63.60;;;;;;5051975;28;20017;-75
2021/07/28 11:10:52;;;;;;;3.97;1.15;;;24.30;63.10;;;;;;5053273;28;20070;-76
2021/07/28 11:13:21;;;;;;;4.40;0.98;;;24.20;62.30;;;;;;5052179;28;20017;-74
2021/07/28 11:16:06;;;;;;;6.63;1.30;;;24.40;63.60;;;;;;5053150;28;20450;-75
2021/07/28 11:18:44;;;;;;;5.63;1.20;;;24.80;63.00;;;;;;5053181;28;20384;-75
2021/07/28 11:21:18;;;;;;;3.13;1.00;;;25.10;62.10;;;;;;5053864;28;20100;-75
2021/07/28 11:23:48;;;;;;;4.78;1.33;;;25.10;60.50;;;;;;5051961;28;20025;-74
2021/07/28 11:26:19;;;;;;;5.57;0.90;;;24.80;60.20;;;;;;5053106;28;20033;-75
2021/07/28 11:28:45;;;;;;;4.43;1.10;;;24.60;60.90;;;;;;5053620;28;20025;-72
2021/07/28 11:31:12;;;;;;;6.72;1.45;;;24.40;61.10;;;;;;5051757;28;20101;-74
2021/07/28 11:33:39;;;;;;;5.22;1.38;;;24.20;61.00;;;;;;5053027;28;20095;-74
2021/07/28 11:36:06;;;;;;;3.92;1.30;;;24.00;60.80;;;;;;5051731;28;20384;-74
2021/07/28 11:38:34;;;;;;;4.07;1.23;;;23.70;61.00;;;;;;5051933;28;20048;-73
2021/07/28 11:41:02;;;;;;;4.78;1.20;;;23.50;61.60;;;;;;5051994;28;20033;-74
2021/07/28 11:43:33;;;;;;;3.55;1.17;;;23.40;62.30;;;;;;5051899;28;20416;-74
2021/07/28 11:46:17;;;;;;;5.13;1.35;;;23.80;63.50;;;;;;5051854;28;20014;-75
2021/07/28 11:48:56;;;;;;;4.57;1.20;;;24.10;62.90;;;;;;5051761;28;20021;-76
2021/07/28 11:51:28;;;;;;;6.45;1.20;;;24.30;62.00;;;;;;5051693;28;20488;-77
2021/07/28 11:54:06;;;;;;;6.75;1.20;;;24.30;61.00;;;;;;5051601;28;20372;-77
2021/07/28 11:56:32;;;;;;;3.90;1.10;;;24.10;59.70;;;;;;5051768;28;20029;-77
2021/07/28 11:58:57;;;;;;;5.93;1.45;;;23.90;60.30;;;;;;5051710;28;20043;-74
2021/07/28 12:01:31;;;;;;;7.15;1.30;;;23.80;60.50;;;;;;5054400;28;20029;-74
2021/07/28 12:04:08;;;;;;;3.75;0.95;;;23.70;60.90;;;;;;5055478;28;20052;-76
2021/07/28 12:06:42;;;;;;;3.40;1.10;;;23.70;61.40;;;;;;5055406;28;20021;-75
2021/07/28 12:09:27;;;;;;;3.13;0.85;;;24.00;61.40;;;;;;5056660;28;20451;-76
2021/07/28 12:12:00;;;;;;;3.83;1.20;;;24.10;61.10;;;;;;5038942;28;20030;-77
2021/07/28 12:14:26;;;;;;;2.55;1.00;;;24.20;60.90;;;;;;5055723;28;20410;-75
2021/07/28 12:16:53;;;;;;;4.32;1.10;;;24.20;60.80;;;;;;5055099;28;20025;-76
2021/07/28 12:19:39;;;;;;;5.38;1.20;;;24.20;60.30;;;;;;5055407;28;20067;-76
2021/07/28 12:22:12;;;;;;;3.90;1.48;;;24.10;60.50;;;;;;5055188;28;20067;-74
2021/07/28 12:24:41;;;;;;;3.35;0.90;;;24.10;60.50;;;;;;5054907;28;20036;-74
2021/07/28 12:27:25;;;;;;;4.68;0.90;;;24.00;60.40;;;;;;5056338;28;20033;-74
2021/07/28 12:29:57;;;;;;;;;;;24.00;60.50;;;;;;5056645;28;20492;-75
2021/07/28 12:32:37;;;;;;;3.70;1.25;;;24.00;60.60;;;;;;5055052;28;20311;-76
2021/07/28 12:35:25;;;;;;;3.85;1.10;;;23.90;60.80;;;;;;5054983;28;20021;-75
2021/07/28 12:38:09;;;;;;;5.13;1.25;;;23.70;60.70;;;;;;5054829;28;20032;-75
2021/07/28 12:40:37;;;;;;;7.15;1.50;;;23.60;61.50;;;;;;5056195;28;20029;-74
2021/07/28 12:43:06;;;;;;;5.03;1.30;;;23.50;61.80;;;;;;5038590;28;20029;-74